sensor_id;sensor_type;location;lat;lon;timestamp;pressure;altitude;pressure_sealevel;temperature;humidity
33845;BME280;20145;43.118;25.694;2023-03-05T00:02:02;99105.78;;;9.85;71.64
33845;BME280;20145;43.118;25.694;2023-03-05T00:04:28;99111.75;;;9.90;71.98
33845;BME280;20145;43.118;25.694;2023-03-05T00:06:53;99102.34;;;9.86;70.59
33845;BME280;20145;43.118;25.694;2023-03-05T00:09:20;99106.50;;;9.95;71.26
33845;BME280;20145;43.118;25.694;2023-03-05T00:11:45;99105.56;;;10.02;72.89
33845;BME280;20145;43.118;25.694;2023-03-05T00:14:11;99104.56;;;10.12;72.59
33845;BME280;20145;43.118;25.694;2023-03-05T00:16:38;99088.47;;;9.95;70.77
33845;BME280;20145;43.118;25.694;2023-03-05T00:19:03;99092.66;;;10.03;70.57
33845;BME280;20145;43.118;25.694;2023-03-05T00:21:37;99093.56;;;10.01;68.64
33845;BME280;20145;43.118;25.694;2023-03-05T00:24:06;99085.81;;;10.01;70.32
33845;BME280;20145;43.118;25.694;2023-03-05T00:26:34;99091.97;;;9.92;67.99
33845;BME280;20145;43.118;25.694;2023-03-05T00:29:02;99080.91;;;9.84;70.06
33845;BME280;20145;43.118;25.694;2023-03-05T00:31:29;99078.41;;;9.79;67.36
33845;BME280;20145;43.118;25.694;2023-03-05T00:33:57;99082.72;;;9.77;66.69
33845;BME280;20145;43.118;25.694;2023-03-05T00:36:24;99072.59;;;9.64;66.70
33845;BME280;20145;43.118;25.694;2023-03-05T00:38:50;99069.22;;;9.60;68.34
33845;BME280;20145;43.118;25.694;2023-03-05T00:41:16;99057.25;;;9.57;67.49
33845;BME280;20145;43.118;25.694;2023-03-05T00:43:42;99066.66;;;9.60;67.79
33845;BME280;20145;43.118;25.694;2023-03-05T00:46:07;99066.59;;;9.65;67.98
33845;BME280;20145;43.118;25.694;2023-03-05T00:48:33;99065.00;;;9.53;68.32
33845;BME280;20145;43.118;25.694;2023-03-05T00:50:59;99059.03;;;9.52;69.06
33845;BME280;20145;43.118;25.694;2023-03-05T00:53:24;99058.19;;;9.50;68.03
33845;BME280;20145;43.118;25.694;2023-03-05T00:55:50;99057.38;;;9.48;69.04
33845;BME280;20145;43.118;25.694;2023-03-05T00:58:15;99057.38;;;9.47;69.11
33845;BME280;20145;43.118;25.694;2023-03-05T01:00:41;99051.50;;;9.37;69.54
33845;BME280;20145;43.118;25.694;2023-03-05T01:03:07;99056.63;;;9.40;69.52
33845;BME280;20145;43.118;25.694;2023-03-05T01:05:33;99048.84;;;9.42;69.72
33845;BME280;20145;43.118;25.694;2023-03-05T01:07:58;99059.06;;;9.49;68.35
33845;BME280;20145;43.118;25.694;2023-03-05T01:10:24;99046.31;;;9.40;68.68
33845;BME280;20145;43.118;25.694;2023-03-05T01:12:56;99045.53;;;9.35;68.46
33845;BME280;20145;43.118;25.694;2023-03-05T01:15:23;99055.91;;;9.29;68.64
33845;BME280;20145;43.118;25.694;2023-03-05T01:17:48;99058.44;;;9.30;68.79
33845;BME280;20145;43.118;25.694;2023-03-05T01:20:16;99058.44;;;9.30;68.98
33845;BME280;20145;43.118;25.694;2023-03-05T01:22:42;99052.44;;;9.30;69.07
33845;BME280;20145;43.118;25.694;2023-03-05T01:25:08;99060.13;;;9.34;68.64
33845;BME280;20145;43.118;25.694;2023-03-05T01:27:34;99060.00;;;9.42;70.86
33845;BME280;20145;43.118;25.694;2023-03-05T01:30:00;99058.31;;;9.41;69.67
33845;BME280;20145;43.118;25.694;2023-03-05T01:32:26;99059.25;;;9.37;68.72
33845;BME280;20145;43.118;25.694;2023-03-05T01:34:51;99060.88;;;9.41;68.26
33845;BME280;20145;43.118;25.694;2023-03-05T01:37:17;99060.00;;;9.42;68.47
33845;BME280;20145;43.118;25.694;2023-03-05T01:39:42;99061.00;;;9.32;68.51
33845;BME280;20145;43.118;25.694;2023-03-05T01:42:08;99060.09;;;9.37;68.64
33845;BME280;20145;43.118;25.694;2023-03-05T01:44:34;99049.88;;;9.28;67.88
33845;BME280;20145;43.118;25.694;2023-03-05T01:46:59;99061.84;;;9.32;68.17
33845;BME280;20145;43.118;25.694;2023-03-05T01:49:35;99066.06;;;9.40;69.09
33845;BME280;20145;43.118;25.694;2023-03-05T01:52:05;99067.81;;;9.37;68.64
33845;BME280;20145;43.118;25.694;2023-03-05T01:54:44;99069.63;;;9.29;68.62
33845;BME280;20145;43.118;25.694;2023-03-05T01:57:16;99058.53;;;9.26;68.74
33845;BME280;20145;43.118;25.694;2023-03-05T01:59:44;99062.75;;;9.30;68.66
33845;BME280;20145;43.118;25.694;2023-03-05T02:02:12;99061.06;;;9.27;68.25
33845;BME280;20145;43.118;25.694;2023-03-05T02:05:09;99061.84;;;9.32;70.06
33845;BME280;20145;43.118;25.694;2023-03-05T02:07:35;99064.53;;;9.26;68.43
33845;BME280;20145;43.118;25.694;2023-03-05T02:10:24;99073.13;;;9.22;69.62
33845;BME280;20145;43.118;25.694;2023-03-05T02:12:51;99063.66;;;9.26;68.68
33845;BME280;20145;43.118;25.694;2023-03-05T02:15:18;99075.56;;;9.33;68.79
33845;BME280;20145;43.118;25.694;2023-03-05T02:17:43;99073.06;;;9.28;67.73
33845;BME280;20145;43.118;25.694;2023-03-05T02:20:12;99079.94;;;9.28;67.87
33845;BME280;20145;43.118;25.694;2023-03-05T02:22:38;99074.81;;;9.25;69.43
33845;BME280;20145;43.118;25.694;2023-03-05T02:25:26;99079.00;;;9.33;68.92
33845;BME280;20145;43.118;25.694;2023-03-05T02:30:56;99078.19;;;9.30;68.47
33845;BME280;20145;43.118;25.694;2023-03-05T02:33:22;99086.72;;;9.33;67.74
33845;BME280;20145;43.118;25.694;2023-03-05T02:35:48;99082.38;;;9.40;69.78
33845;BME280;20145;43.118;25.694;2023-03-05T02:38:16;99079.03;;;9.30;67.88
33845;BME280;20145;43.118;25.694;2023-03-05T02:40:42;99090.34;;;9.20;67.99
33845;BME280;20145;43.118;25.694;2023-03-05T02:43:09;99084.44;;;9.09;67.65
33845;BME280;20145;43.118;25.694;2023-03-05T02:45:35;99081.09;;;9.02;67.73
33845;BME280;20145;43.118;25.694;2023-03-05T02:48:01;99087.25;;;8.87;68.02
33845;BME280;20145;43.118;25.694;2023-03-05T02:50:27;99082.19;;;8.78;69.35
33845;BME280;20145;43.118;25.694;2023-03-05T02:52:53;99081.31;;;8.81;68.83
33845;BME280;20145;43.118;25.694;2023-03-05T02:55:19;99078.91;;;8.65;68.26
33845;BME280;20145;43.118;25.694;2023-03-05T02:57:45;99080.56;;;8.69;67.94
33845;BME280;20145;43.118;25.694;2023-03-05T03:00:11;99076.34;;;8.65;67.71
33845;BME280;20145;43.118;25.694;2023-03-05T03:02:37;99079.78;;;8.63;67.76
33845;BME280;20145;43.118;25.694;2023-03-05T03:05:03;99078.16;;;8.54;67.54
33845;BME280;20145;43.118;25.694;2023-03-05T03:07:29;99073.91;;;8.52;67.58
33845;BME280;20145;43.118;25.694;2023-03-05T03:09:55;99087.53;;;8.58;67.50
33845;BME280;20145;43.118;25.694;2023-03-05T03:12:21;99080.63;;;8.63;67.66
33845;BME280;20145;43.118;25.694;2023-03-05T03:14:46;99084.94;;;8.63;67.22
33845;BME280;20145;43.118;25.694;2023-03-05T03:17:14;99085.75;;;8.68;67.16
33845;BME280;20145;43.118;25.694;2023-03-05T03:19:42;99081.50;;;8.62;67.37
33845;BME280;20145;43.118;25.694;2023-03-05T03:22:09;99080.66;;;8.59;66.72
33845;BME280;20145;43.118;25.694;2023-03-05T03:24:36;99079.84;;;8.55;67.34
33845;BME280;20145;43.118;25.694;2023-03-05T03:27:03;99084.13;;;8.59;66.60
33845;BME280;20145;43.118;25.694;2023-03-05T03:29:30;99078.09;;;8.59;67.75
33845;BME280;20145;43.118;25.694;2023-03-05T03:31:56;99078.13;;;8.56;67.92
33845;BME280;20145;43.118;25.694;2023-03-05T03:34:22;99073.06;;;8.51;67.79
33845;BME280;20145;43.118;25.694;2023-03-05T03:36:48;99081.59;;;8.52;68.37
33845;BME280;20145;43.118;25.694;2023-03-05T03:39:15;99078.09;;;8.60;66.96
33845;BME280;20145;43.118;25.694;2023-03-05T03:41:49;99077.31;;;8.54;67.62
33845;BME280;20145;43.118;25.694;2023-03-05T03:44:15;99076.44;;;8.53;67.74
33845;BME280;20145;43.118;25.694;2023-03-05T03:46:43;99082.44;;;8.52;67.53
33845;BME280;20145;43.118;25.694;2023-03-05T03:49:18;99075.59;;;8.54;68.21
33845;BME280;20145;43.118;25.694;2023-03-05T03:51:45;99074.72;;;8.55;67.81
33845;BME280;20145;43.118;25.694;2023-03-05T03:54:13;99079.91;;;8.49;68.03
33845;BME280;20145;43.118;25.694;2023-03-05T03:56:39;99075.56;;;8.57;67.29
33845;BME280;20145;43.118;25.694;2023-03-05T03:59:06;99078.13;;;8.57;67.73
33845;BME280;20145;43.118;25.694;2023-03-05T04:01:32;99079.03;;;8.52;68.11
33845;BME280;20145;43.118;25.694;2023-03-05T04:03:58;99080.66;;;8.60;67.81
33845;BME280;20145;43.118;25.694;2023-03-05T04:06:24;99087.44;;;8.70;67.15
33845;BME280;20145;43.118;25.694;2023-03-05T04:08:49;99086.56;;;8.73;66.86
33845;BME280;20145;43.118;25.694;2023-03-05T04:11:15;99087.34;;;8.78;66.61
33845;BME280;20145;43.118;25.694;2023-03-05T04:13:44;99090.84;;;8.71;66.57
33845;BME280;20145;43.118;25.694;2023-03-05T04:16:11;99091.81;;;8.56;67.54
33845;BME280;20145;43.118;25.694;2023-03-05T04:18:37;99087.47;;;8.67;68.17
33845;BME280;20145;43.118;25.694;2023-03-05T04:21:03;99083.25;;;8.60;67.24
33845;BME280;20145;43.118;25.694;2023-03-05T04:23:30;99085.78;;;8.63;68.20
33845;BME280;20145;43.118;25.694;2023-03-05T04:25:55;99082.34;;;8.61;68.24
33845;BME280;20145;43.118;25.694;2023-03-05T04:28:21;99085.81;;;8.62;68.48
33845;BME280;20145;43.118;25.694;2023-03-05T04:30:47;99079.75;;;8.66;68.93
33845;BME280;20145;43.118;25.694;2023-03-05T04:33:13;99078.97;;;8.58;68.85
33845;BME280;20145;43.118;25.694;2023-03-05T04:35:39;99071.31;;;8.52;68.02
33845;BME280;20145;43.118;25.694;2023-03-05T04:38:05;99067.06;;;8.47;69.31
33845;BME280;20145;43.118;25.694;2023-03-05T04:40:30;99071.31;;;8.50;68.01
33845;BME280;20145;43.118;25.694;2023-03-05T04:42:56;99073.00;;;8.54;69.16
33845;BME280;20145;43.118;25.694;2023-03-05T04:45:22;99077.28;;;8.57;68.08
33845;BME280;20145;43.118;25.694;2023-03-05T04:47:47;99074.66;;;8.61;67.34
33845;BME280;20145;43.118;25.694;2023-03-05T04:50:13;99082.25;;;8.72;67.95
33845;BME280;20145;43.118;25.694;2023-03-05T04:52:41;99083.16;;;8.68;68.06
33845;BME280;20145;43.118;25.694;2023-03-05T04:55:07;99081.47;;;8.65;68.24
33845;BME280;20145;43.118;25.694;2023-03-05T04:57:34;99081.44;;;8.67;67.56
33845;BME280;20145;43.118;25.694;2023-03-05T05:00:00;99071.28;;;8.53;68.15
33845;BME280;20145;43.118;25.694;2023-03-05T05:02:26;99083.25;;;8.62;67.76
33845;BME280;20145;43.118;25.694;2023-03-05T05:04:53;99085.88;;;8.54;69.32
33845;BME280;20145;43.118;25.694;2023-03-05T05:07:18;99075.50;;;8.63;68.05
33845;BME280;20145;43.118;25.694;2023-03-05T05:09:44;99081.53;;;8.59;68.58
33845;BME280;20145;43.118;25.694;2023-03-05T05:12:10;99072.22;;;8.46;68.02
33845;BME280;20145;43.118;25.694;2023-03-05T05:14:36;99087.50;;;8.63;68.40
33845;BME280;20145;43.118;25.694;2023-03-05T05:17:02;99085.75;;;8.68;67.88
33845;BME280;20145;43.118;25.694;2023-03-05T05:19:32;99086.56;;;8.70;66.98
33845;BME280;20145;43.118;25.694;2023-03-05T05:21:58;99088.28;;;8.71;67.01
33845;BME280;20145;43.118;25.694;2023-03-05T05:24:24;99087.41;;;8.74;67.68
33845;BME280;20145;43.118;25.694;2023-03-05T05:26:50;99093.34;;;8.76;66.79
33845;BME280;20145;43.118;25.694;2023-03-05T05:29:16;99097.59;;;8.83;66.00
33845;BME280;20145;43.118;25.694;2023-03-05T05:31:42;99101.03;;;8.80;66.87
33845;BME280;20145;43.118;25.694;2023-03-05T05:34:08;99104.38;;;8.88;65.80
33845;BME280;20145;43.118;25.694;2023-03-05T05:36:33;99099.97;;;9.01;66.42
33845;BME280;20145;43.118;25.694;2023-03-05T05:39:02;99103.44;;;8.99;65.46
33845;BME280;20145;43.118;25.694;2023-03-05T05:41:28;99104.31;;;8.94;66.06
33845;BME280;20145;43.118;25.694;2023-03-05T05:43:54;99107.59;;;9.12;64.85
33845;BME280;20145;43.118;25.694;2023-03-05T05:46:21;99109.38;;;9.04;66.02
33845;BME280;20145;43.118;25.694;2023-03-05T05:48:47;99106.66;;;9.16;65.13
33845;BME280;20145;43.118;25.694;2023-03-05T05:51:16;99111.16;;;8.97;65.21
33845;BME280;20145;43.118;25.694;2023-03-05T05:53:42;99111.22;;;8.91;66.11
33845;BME280;20145;43.118;25.694;2023-03-05T05:56:09;99120.53;;;9.04;66.18
33845;BME280;20145;43.118;25.694;2023-03-05T05:58:36;99120.47;;;9.10;65.52
33845;BME280;20145;43.118;25.694;2023-03-05T06:01:18;99120.34;;;9.21;65.88
33845;BME280;20145;43.118;25.694;2023-03-05T06:03:45;99110.69;;;9.38;65.45
33845;BME280;20145;43.118;25.694;2023-03-05T06:06:12;99114.28;;;9.27;65.80
33845;BME280;20145;43.118;25.694;2023-03-05T06:08:38;99115.91;;;9.34;65.62
33845;BME280;20145;43.118;25.694;2023-03-05T06:11:05;99127.09;;;9.31;65.93
33845;BME280;20145;43.118;25.694;2023-03-05T06:13:31;99124.75;;;9.08;66.03
33845;BME280;20145;43.118;25.694;2023-03-05T06:15:58;99132.56;;;9.02;67.21
33845;BME280;20145;43.118;25.694;2023-03-05T06:18:25;99129.94;;;9.07;67.70
33845;BME280;20145;43.118;25.694;2023-03-05T06:20:58;99129.09;;;9.03;67.03
33845;BME280;20145;43.118;25.694;2023-03-05T06:23:24;99127.28;;;9.11;66.51
33845;BME280;20145;43.118;25.694;2023-03-05T06:25:51;99136.72;;;9.15;66.19
33845;BME280;20145;43.118;25.694;2023-03-05T06:28:17;99124.84;;;9.04;65.53
33845;BME280;20145;43.118;25.694;2023-03-05T06:30:43;99139.38;;;9.03;66.12
33845;BME280;20145;43.118;25.694;2023-03-05T06:33:08;99142.00;;;9.00;64.73
33845;BME280;20145;43.118;25.694;2023-03-05T06:35:37;99144.53;;;9.06;65.08
33845;BME280;20145;43.118;25.694;2023-03-05T06:38:07;99142.69;;;9.18;65.09
33845;BME280;20145;43.118;25.694;2023-03-05T06:40:33;99148.59;;;9.29;64.31
33845;BME280;20145;43.118;25.694;2023-03-05T06:42:59;99147.91;;;9.10;63.78
33845;BME280;20145;43.118;25.694;2023-03-05T06:45:25;99139.09;;;9.34;64.53
33845;BME280;20145;43.118;25.694;2023-03-05T06:47:50;99148.25;;;9.55;63.17
33845;BME280;20145;43.118;25.694;2023-03-05T06:50:16;99140.31;;;9.72;62.90
33845;BME280;20145;43.118;25.694;2023-03-05T06:52:42;99151.34;;;9.85;61.64
33845;BME280;20145;43.118;25.694;2023-03-05T06:55:08;99144.00;;;10.17;61.89
33845;BME280;20145;43.118;25.694;2023-03-05T06:57:35;99143.88;;;10.25;60.83
33845;BME280;20145;43.118;25.694;2023-03-05T07:00:03;99138.34;;;10.51;59.61
33845;BME280;20145;43.118;25.694;2023-03-05T07:02:32;99141.09;;;10.91;58.56
33845;BME280;20145;43.118;25.694;2023-03-05T07:04:57;99139.09;;;10.58;58.73
33845;BME280;20145;43.118;25.694;2023-03-05T07:07:23;99141.16;;;10.36;58.43
33845;BME280;20145;43.118;25.694;2023-03-05T07:09:49;99139.59;;;10.25;59.63
33845;BME280;20145;43.118;25.694;2023-03-05T07:12:17;99129.47;;;10.12;60.25
33845;BME280;20145;43.118;25.694;2023-03-05T07:14:42;99132.81;;;10.20;60.28
33845;BME280;20145;43.118;25.694;2023-03-05T07:17:08;99129.94;;;9.79;59.60
33845;BME280;20145;43.118;25.694;2023-03-05T07:19:34;99131.63;;;9.82;61.12
33845;BME280;20145;43.118;25.694;2023-03-05T07:21:59;99124.78;;;9.79;60.72
33845;BME280;20145;43.118;25.694;2023-03-05T07:24:25;99122.78;;;9.98;61.46
33845;BME280;20145;43.118;25.694;2023-03-05T07:26:57;99126.16;;;10.02;59.62
33845;BME280;20145;43.118;25.694;2023-03-05T07:29:24;99120.28;;;9.94;60.84
33845;BME280;20145;43.118;25.694;2023-03-05T07:31:50;99118.44;;;10.02;60.05
33845;BME280;20145;43.118;25.694;2023-03-05T07:34:16;99113.31;;;10.00;60.23
33845;BME280;20145;43.118;25.694;2023-03-05T07:36:42;99109.06;;;9.95;61.12
33845;BME280;20145;43.118;25.694;2023-03-05T07:39:09;99107.03;;;10.17;61.01
33845;BME280;20145;43.118;25.694;2023-03-05T07:41:35;99114.34;;;10.47;61.33
33845;BME280;20145;43.118;25.694;2023-03-05T07:44:01;99106.72;;;10.40;60.10
33845;BME280;20145;43.118;25.694;2023-03-05T07:46:30;99103.16;;;10.47;60.12
33845;BME280;20145;43.118;25.694;2023-03-05T07:48:57;99098.66;;;10.58;59.78
33845;BME280;20145;43.118;25.694;2023-03-05T07:51:24;99092.94;;;10.42;59.82
33845;BME280;20145;43.118;25.694;2023-03-05T07:53:52;99102.31;;;10.46;58.89
33845;BME280;20145;43.118;25.694;2023-03-05T07:56:24;99099.63;;;10.53;59.20
33845;BME280;20145;43.118;25.694;2023-03-05T07:58:50;99096.25;;;10.51;60.32
33845;BME280;20145;43.118;25.694;2023-03-05T08:01:16;99084.25;;;10.48;59.20
33845;BME280;20145;43.118;25.694;2023-03-05T08:03:42;99090.13;;;10.56;59.24
33845;BME280;20145;43.118;25.694;2023-03-05T08:06:09;99084.19;;;10.51;59.37
33845;BME280;20145;43.118;25.694;2023-03-05T08:08:35;99091.13;;;10.47;59.21
33845;BME280;20145;43.118;25.694;2023-03-05T08:11:06;99078.06;;;10.57;58.23
33845;BME280;20145;43.118;25.694;2023-03-05T08:13:32;99083.41;;;10.44;58.98
33845;BME280;20145;43.118;25.694;2023-03-05T08:15:58;99083.97;;;10.63;57.90
33845;BME280;20145;43.118;25.694;2023-03-05T08:18:24;99082.28;;;10.62;57.10
33845;BME280;20145;43.118;25.694;2023-03-05T08:20:49;99077.78;;;10.74;58.22
33845;BME280;20145;43.118;25.694;2023-03-05T08:23:15;99072.34;;;10.87;57.06
33845;BME280;20145;43.118;25.694;2023-03-05T08:25:40;99068.09;;;10.85;56.37
33845;BME280;20145;43.118;25.694;2023-03-05T08:28:06;99060.44;;;10.80;57.72
33845;BME280;20145;43.118;25.694;2023-03-05T08:30:33;99065.28;;;10.97;57.46
33845;BME280;20145;43.118;25.694;2023-03-05T08:33:01;99059.97;;;11.05;57.64
33845;BME280;20145;43.118;25.694;2023-03-05T08:35:26;99051.09;;;11.20;57.70
33845;BME280;20145;43.118;25.694;2023-03-05T08:37:52;99043.16;;;11.27;54.97
33845;BME280;20145;43.118;25.694;2023-03-05T08:40:17;99042.91;;;11.39;55.89
33845;BME280;20145;43.118;25.694;2023-03-05T08:42:44;99041.34;;;11.32;56.03
33845;BME280;20145;43.118;25.694;2023-03-05T08:45:13;99036.84;;;11.42;56.31
33845;BME280;20145;43.118;25.694;2023-03-05T08:47:39;99029.63;;;11.56;57.30
33845;BME280;20145;43.118;25.694;2023-03-05T08:50:05;99030.88;;;11.77;55.72
33845;BME280;20145;43.118;25.694;2023-03-05T08:52:30;99031.56;;;11.86;54.95
33845;BME280;20145;43.118;25.694;2023-03-05T08:54:56;99026.44;;;11.82;54.78
33845;BME280;20145;43.118;25.694;2023-03-05T08:57:22;99026.16;;;11.96;56.31
33845;BME280;20145;43.118;25.694;2023-03-05T08:59:48;99032.00;;;12.04;54.12
33845;BME280;20145;43.118;25.694;2023-03-05T09:02:13;99022.50;;;12.05;55.38
33845;BME280;20145;43.118;25.694;2023-03-05T09:04:42;99023.75;;;11.89;54.18
33845;BME280;20145;43.118;25.694;2023-03-05T09:07:08;99011.09;;;11.76;54.04
33845;BME280;20145;43.118;25.694;2023-03-05T09:09:33;99011.75;;;11.84;55.32
33845;BME280;20145;43.118;25.694;2023-03-05T09:12:00;99011.78;;;11.83;54.41
33845;BME280;20145;43.118;25.694;2023-03-05T09:14:25;99002.97;;;11.93;55.89
33845;BME280;20145;43.118;25.694;2023-03-05T09:16:54;99002.63;;;11.70;54.38
33845;BME280;20145;43.118;25.694;2023-03-05T09:19:19;99001.63;;;11.75;55.57
33845;BME280;20145;43.118;25.694;2023-03-05T09:21:45;98998.97;;;11.78;55.58
33845;BME280;20145;43.118;25.694;2023-03-05T09:24:12;99003.41;;;11.73;55.35
33845;BME280;20145;43.118;25.694;2023-03-05T09:26:38;98993.66;;;11.84;53.64
33845;BME280;20145;43.118;25.694;2023-03-05T09:29:05;98999.19;;;11.69;54.19
33845;BME280;20145;43.118;25.694;2023-03-05T09:31:33;98993.69;;;11.46;54.74
33845;BME280;20145;43.118;25.694;2023-03-05T09:33:59;99009.56;;;11.29;54.88
33845;BME280;20145;43.118;25.694;2023-03-05T09:36:28;99003.03;;;11.12;54.79
33845;BME280;20145;43.118;25.694;2023-03-05T09:38:54;99000.97;;;10.86;55.23
33845;BME280;20145;43.118;25.694;2023-03-05T09:49:58;98994.78;;;11.35;52.84
33845;BME280;20145;43.118;25.694;2023-03-05T09:52:42;98988.28;;;11.56;52.51
33845;BME280;20145;43.118;25.694;2023-03-05T09:55:13;98962.03;;;11.37;53.56
33845;BME280;20145;43.118;25.694;2023-03-05T09:57:48;98971.22;;;11.49;52.18
33845;BME280;20145;43.118;25.694;2023-03-05T10:00:41;98973.66;;;11.55;51.95
33845;BME280;20145;43.118;25.694;2023-03-05T10:03:15;98972.56;;;11.66;52.22
33845;BME280;20145;43.118;25.694;2023-03-05T10:05:50;98976.56;;;11.79;52.27
33845;BME280;20145;43.118;25.694;2023-03-05T10:08:22;98977.47;;;11.78;53.90
33845;BME280;20145;43.118;25.694;2023-03-05T10:10:52;98971.09;;;11.93;53.67
33845;BME280;20145;43.118;25.694;2023-03-05T10:13:23;98958.09;;;11.58;54.04
33845;BME280;20145;43.118;25.694;2023-03-05T10:16:05;98961.72;;;11.50;53.63
33845;BME280;20145;43.118;25.694;2023-03-05T10:18:45;98961.53;;;11.59;52.20
33845;BME280;20145;43.118;25.694;2023-03-05T10:21:39;98961.41;;;11.64;53.55
33845;BME280;20145;43.118;25.694;2023-03-05T10:24:13;98962.91;;;11.74;51.11
33845;BME280;20145;43.118;25.694;2023-03-05T10:27:07;98957.38;;;11.53;51.34
33845;BME280;20145;43.118;25.694;2023-03-05T10:40:46;98929.78;;;11.54;52.33
33845;BME280;20145;43.118;25.694;2023-03-05T10:46:03;98914.78;;;11.68;51.47
33845;BME280;20145;43.118;25.694;2023-03-05T10:48:36;98913.28;;;11.59;51.38
33845;BME280;20145;43.118;25.694;2023-03-05T10:54:24;98909.63;;;12.37;50.70
33845;BME280;20145;43.118;25.694;2023-03-05T10:57:30;98904.13;;;12.77;49.29
33845;BME280;20145;43.118;25.694;2023-03-05T11:00:06;98899.66;;;12.84;48.22
33845;BME280;20145;43.118;25.694;2023-03-05T11:02:33;98889.28;;;12.84;48.28
33845;BME280;20145;43.118;25.694;2023-03-05T11:04:59;98870.56;;;12.74;48.69
33845;BME280;20145;43.118;25.694;2023-03-05T11:12:34;98870.81;;;12.37;49.41
33845;BME280;20145;43.118;25.694;2023-03-05T11:17:43;98866.03;;;12.21;50.50
33845;BME280;20145;43.118;25.694;2023-03-05T11:20:32;98867.88;;;12.18;49.37
33845;BME280;20145;43.118;25.694;2023-03-05T11:23:14;98858.19;;;12.24;50.00
33845;BME280;20145;43.118;25.694;2023-03-05T11:28:42;98841.50;;;12.05;50.40
33845;BME280;20145;43.118;25.694;2023-03-05T11:31:22;98840.81;;;11.98;51.83
33845;BME280;20145;43.118;25.694;2023-03-05T11:34:01;98833.72;;;12.05;51.52
33845;BME280;20145;43.118;25.694;2023-03-05T11:36:32;98824.66;;;12.21;50.60
33845;BME280;20145;43.118;25.694;2023-03-05T11:41:33;98817.91;;;12.17;49.92
33845;BME280;20145;43.118;25.694;2023-03-05T11:44:02;98814.47;;;12.17;49.36
33845;BME280;20145;43.118;25.694;2023-03-05T11:46:36;98809.59;;;12.36;50.60
33845;BME280;20145;43.118;25.694;2023-03-05T11:49:02;98802.00;;;12.59;50.89
33845;BME280;20145;43.118;25.694;2023-03-05T11:51:41;98790.56;;;12.66;47.94
33845;BME280;20145;43.118;25.694;2023-03-05T11:54:13;98796.22;;;12.79;48.39
33845;BME280;20145;43.118;25.694;2023-03-05T11:56:41;98799.03;;;12.71;49.64
33845;BME280;20145;43.118;25.694;2023-03-05T11:59:18;98788.25;;;12.57;49.31
33845;BME280;20145;43.118;25.694;2023-03-05T12:01:49;98790.13;;;12.52;48.37
33845;BME280;20145;43.118;25.694;2023-03-05T12:04:16;98770.78;;;12.36;47.86
33845;BME280;20145;43.118;25.694;2023-03-05T12:06:57;98784.41;;;12.42;48.06
33845;BME280;20145;43.118;25.694;2023-03-05T12:09:40;98770.06;;;12.60;46.52
33845;BME280;20145;43.118;25.694;2023-03-05T12:23:01;98772.81;;;12.82;45.30
33845;BME280;20145;43.118;25.694;2023-03-05T12:25:33;98773.97;;;12.73;44.90
33845;BME280;20145;43.118;25.694;2023-03-05T12:27:59;98779.03;;;12.77;45.78
33845;BME280;20145;43.118;25.694;2023-03-05T12:33:41;98771.44;;;12.72;45.14
33845;BME280;20145;43.118;25.694;2023-03-05T12:38:42;98776.09;;;12.89;44.56
33845;BME280;20145;43.118;25.694;2023-03-05T12:46:38;98781.75;;;13.28;43.38
33845;BME280;20145;43.118;25.694;2023-03-05T12:51:47;98778.41;;;13.23;44.42
33845;BME280;20145;43.118;25.694;2023-03-05T12:56:55;98770.63;;;13.25;44.59
33845;BME280;20145;43.118;25.694;2023-03-05T12:59:26;98769.06;;;13.19;44.98
33845;BME280;20145;43.118;25.694;2023-03-05T13:02:00;98773.25;;;13.23;44.00
33845;BME280;20145;43.118;25.694;2023-03-05T13:04:29;98762.41;;;13.10;44.40
33845;BME280;20145;43.118;25.694;2023-03-05T13:07:02;98765.91;;;13.09;45.55
33845;BME280;20145;43.118;25.694;2023-03-05T13:09:30;98768.34;;;12.87;45.61
33845;BME280;20145;43.118;25.694;2023-03-05T13:11:58;98779.84;;;12.79;45.82
33845;BME280;20145;43.118;25.694;2023-03-05T13:14:29;98778.19;;;12.76;43.81
33845;BME280;20145;43.118;25.694;2023-03-05T13:16:55;98768.59;;;12.52;44.96
33845;BME280;20145;43.118;25.694;2023-03-05T13:19:21;98768.41;;;12.58;45.61
33845;BME280;20145;43.118;25.694;2023-03-05T13:21:57;98767.84;;;12.76;46.34
33845;BME280;20145;43.118;25.694;2023-03-05T13:24:23;98727.94;;;12.55;45.59
33845;BME280;20145;43.118;25.694;2023-03-05T13:26:48;98759.59;;;12.63;46.44
33845;BME280;20145;43.118;25.694;2023-03-05T13:34:23;98754.19;;;12.43;45.78
33845;BME280;20145;43.118;25.694;2023-03-05T13:37:01;98761.06;;;12.44;45.56
33845;BME280;20145;43.118;25.694;2023-03-05T13:39:40;98757.81;;;12.37;45.34
33845;BME280;20145;43.118;25.694;2023-03-05T13:42:37;98764.72;;;12.09;45.17
33845;BME280;20145;43.118;25.694;2023-03-05T13:45:06;98758.53;;;12.13;44.89
33845;BME280;20145;43.118;25.694;2023-03-05T13:47:34;98759.06;;;12.24;44.67
33845;BME280;20145;43.118;25.694;2023-03-05T13:50:05;98764.66;;;12.10;45.51
33845;BME280;20145;43.118;25.694;2023-03-05T13:52:36;98759.66;;;12.04;47.01
33845;BME280;20145;43.118;25.694;2023-03-05T13:55:04;98764.09;;;11.99;47.64
33845;BME280;20145;43.118;25.694;2023-03-05T13:57:39;98762.50;;;11.95;48.18
33845;BME280;20145;43.118;25.694;2023-03-05T14:02:52;98749.84;;;11.84;47.56
33845;BME280;20145;43.118;25.694;2023-03-05T14:05:18;98756.06;;;11.77;47.91
33845;BME280;20145;43.118;25.694;2023-03-05T14:07:47;98741.63;;;11.70;46.83
33845;BME280;20145;43.118;25.694;2023-03-05T14:10:38;98760.31;;;11.79;47.26
33845;BME280;20145;43.118;25.694;2023-03-05T14:13:10;98749.84;;;11.84;48.19
33845;BME280;20145;43.118;25.694;2023-03-05T14:15:37;98732.63;;;11.83;48.52
33845;BME280;20145;43.118;25.694;2023-03-05T14:20:36;98750.69;;;11.86;47.73
33845;BME280;20145;43.118;25.694;2023-03-05T14:23:23;98741.13;;;11.88;48.04